Time;durP1;ratioP1;P1;durP2;ratioP2;P2;SDS_P1;SDS_P2;PMS_P1;PMS_P2;Temp;Humidity;BMP_temperature;BMP_pressure;BME280_temperature;BME280_humidity;BME280_pressure;Samples;Min_cycle;Max_cycle;Signal;HPM_P1;HPM_P2
2022/10/26 00:02:14;;;;;;;5.10;3.40;;;;;;;9.56;100.00;96531.09;5071227;27;101927;-62
2022/10/26 00:04:41;;;;;;;3.13;2.80;;;;;;;9.61;100.00;96537.31;5071202;27;103666;-62
2022/10/26 00:07:10;;;;;;;3.47;3.10;;;;;;;9.65;100.00;96540.28;5070616;27;104294;-62
2022/10/26 00:09:37;;;;;;;4.07;3.00;;;;;;;9.63;100.00;96543.19;5070995;27;101874;-62
2022/10/26 00:12:05;;;;;;;5.00;3.20;;;;;;;9.65;100.00;96545.59;5071049;27;104032;-62
2022/10/26 00:14:32;;;;;;;3.77;2.67;;;;;;;9.63;100.00;96545.84;5070175;27;105273;-62
2022/10/26 00:16:59;;;;;;;3.10;2.50;;;;;;;9.55;100.00;96554.19;5074404;27;101741;-62
2022/10/26 00:19:27;;;;;;;4.30;2.60;;;;;;;9.56;100.00;96537.22;5070450;27;106262;-62
2022/10/26 00:21:55;;;;;;;2.20;2.10;;;;;;;9.64;100.00;96506.78;5070994;27;101842;-62
2022/10/26 00:24:24;;;;;;;2.60;2.40;;;;;;;9.75;100.00;96506.72;5069126;27;104878;-62
2022/10/26 00:26:51;;;;;;;2.57;2.37;;;;;;;9.82;100.00;96498.59;5070174;27;105064;-62
2022/10/26 00:29:18;;;;;;;3.73;2.57;;;;;;;9.81;100.00;96505.75;5070528;27;101739;-62
2022/10/26 00:31:46;;;;;;;4.50;2.60;;;;;;;9.80;100.00;96503.34;5070488;27;105180;-62
2022/10/26 00:34:13;;;;;;;3.20;2.60;;;;;;;9.89;100.00;96507.19;5070052;27;105354;-62
2022/10/26 00:36:40;;;;;;;3.83;3.13;;;;;;;9.80;100.00;96524.59;5070799;27;101925;-62
2022/10/26 00:39:07;;;;;;;5.00;2.60;;;;;;;9.88;100.00;96532.94;5073522;27;105112;-62
2022/10/26 00:41:36;;;;;;;4.00;3.20;;;;;;;9.99;100.00;96523.31;5070202;27;101891;-62
2022/10/26 00:44:36;;;;;;;3.40;3.20;;;;;;;10.08;100.00;96513.91;5070577;27;105287;-62
2022/10/26 00:47:04;;;;;;;5.27;3.70;;;;;;;10.13;100.00;96512.13;5069153;27;105108;-62
2022/10/26 00:49:31;;;;;;;4.17;3.77;;;;;;;10.15;100.00;96495.94;5070962;27;101872;-62
2022/10/26 00:51:58;;;;;;;3.33;3.03;;;;;;;10.20;100.00;96491.47;5070637;27;105600;-62
2022/10/26 00:54:25;;;;;;;3.00;2.73;;;;;;;10.22;100.00;96499.22;5069500;27;104380;-62
2022/10/26 00:56:55;;;;;;;6.67;4.30;;;;;;;10.29;100.00;96503.31;5070198;27;101920;-62
2022/10/26 00:59:23;;;;;;;4.27;3.87;;;;;;;10.24;100.00;96510.44;5069261;27;105468;-62
2022/10/26 01:01:52;;;;;;;3.80;3.47;;;;;;;10.28;100.00;96495.56;5072815;27;102013;-62
2022/10/26 01:04:19;;;;;;;5.30;3.87;;;;;;;10.34;100.00;96489.28;5070025;27;104195;-62
2022/10/26 01:06:47;;;;;;;3.47;3.17;;;;;;;10.37;100.00;96486.91;5069451;27;105019;-62
2022/10/26 01:09:14;;;;;;;4.63;3.73;;;;;;;10.33;100.00;96496.47;5070086;27;102005;-62
2022/10/26 01:11:42;;;;;;;4.40;3.77;;;;;;;10.36;100.00;96481.88;5070014;27;105157;-62
2022/10/26 01:14:12;;;;;;;4.17;3.77;;;;;;;10.40;100.00;96472.34;5069462;27;103703;-62
2022/10/26 01:16:51;;;;;;;4.27;3.27;;;;;;;10.43;100.00;96478.00;5069938;27;101969;-62
2022/10/26 01:20:06;;;;;;;5.67;3.83;;;;;;;10.39;100.00;96494.66;5070060;27;105149;-62
2022/10/26 01:22:41;;;;;;;5.80;3.63;;;;;;;10.41;100.00;96472.09;5072627;27;106017;-62
2022/10/26 01:25:17;;;;;;;4.77;3.60;;;;;;;10.37;100.00;96473.63;5069922;27;106591;-62
2022/10/26 01:27:47;;;;;;;3.97;3.50;;;;;;;10.39;100.00;96484.03;5069095;27;105362;-60
2022/10/26 01:30:27;;;;;;;3.13;2.83;;;;;;;10.28;100.00;96479.63;5071081;27;101868;-60
2022/10/26 01:33:17;;;;;;;4.43;3.70;;;;;;;10.30;100.00;96472.22;5071492;27;102381;-60
2022/10/26 01:35:52;;;;;;;5.73;3.57;;;;;;;10.34;100.00;96465.34;5070715;27;102612;-60
2022/10/26 01:38:27;;;;;;;4.10;3.30;;;;;;;10.32;100.00;96467.47;5071212;27;101724;-60
2022/10/26 01:41:02;;;;;;;3.50;3.17;;;;;;;10.41;100.00;96473.97;5071302;27;102543;-60
2022/10/26 01:43:35;;;;;;;3.90;3.50;;;;;;;10.41;100.00;96480.06;5070364;27;103325;-60
2022/10/26 01:46:06;;;;;;;4.73;3.77;;;;;;;10.44;100.00;96478.78;5074421;27;101915;-60
2022/10/26 01:48:34;;;;;;;3.80;3.47;;;;;;;10.44;100.00;96481.44;5068351;27;103982;-60
2022/10/26 01:51:03;;;;;;;4.00;3.70;;;;;;;10.45;100.00;96493.66;5069462;27;102177;-60
2022/10/26 01:53:31;;;;;;;4.10;3.23;;;;;;;10.31;100.00;96485.25;5069363;27;102350;-60
2022/10/26 01:56:00;;;;;;;4.33;3.07;;;;;;;10.16;100.00;96484.25;5068656;27;104538;-60
2022/10/26 01:58:49;;;;;;;4.13;3.80;;;;;;;10.15;100.00;96482.66;5069286;27;101922;-60
2022/10/26 02:01:46;;;;;;;3.77;3.30;;;;;;;10.07;100.00;96483.06;5069377;27;105393;-60
2022/10/26 02:04:25;;;;;;;5.37;3.23;;;;;;;10.06;100.00;96486.75;5068773;27;105245;-60
2022/10/26 02:07:02;;;;;;;3.70;3.40;;;;;;;10.10;100.00;96498.53;5070758;27;101802;-60
2022/10/26 02:09:39;;;;;;;4.97;3.23;;;;;;;10.04;100.00;96489.66;5073849;27;102741;-60
2022/10/26 02:12:15;;;;;;;4.00;3.53;;;;;;;10.09;100.00;96492.38;5072565;27;102355;-60
2022/10/26 02:14:49;;;;;;;3.77;3.47;;;;;;;10.09;100.00;96496.91;5073020;27;105396;-60
2022/10/26 02:17:24;;;;;;;3.90;3.47;;;;;;;10.05;100.00;96503.75;5072266;27;106112;-60
2022/10/26 02:19:57;;;;;;;5.00;3.60;;;;;;;10.06;100.00;96498.22;5072737;27;101998;-60
2022/10/26 02:22:29;;;;;;;6.47;4.43;;;;;;;10.10;100.00;96503.84;5072833;27;105184;-60
2022/10/26 02:24:57;;;;;;;4.80;4.37;;;;;;;10.08;100.00;96505.94;5072241;27;105059;-60
2022/10/26 02:27:29;;;;;;;4.93;4.50;;;;;;;10.14;100.00;96481.03;5072876;27;101852;-60
2022/10/26 02:29:58;;;;;;;6.30;4.90;;;;;;;10.20;100.00;96466.78;5072792;27;105460;-60
2022/10/26 02:32:31;;;;;;;6.30;4.37;;;;;;;10.24;100.00;96505.09;5075573;27;105118;-60
2022/10/26 02:35:02;;;;;;;4.87;4.47;;;;;;;10.19;100.00;96519.09;5072406;27;104075;-60
2022/10/26 02:37:32;;;;;;;4.67;4.37;;;;;;;10.26;100.00;96506.44;5072042;27;105053;-60
2022/10/26 02:40:02;;;;;;;5.53;5.00;;;;;;;10.34;100.00;96513.19;5072416;27;101867;-60
2022/10/26 02:42:30;;;;;;;6.13;4.97;;;;;;;10.35;100.00;96493.56;5072570;27;105727;-60
2022/10/26 02:45:02;;;;;;;5.27;4.80;;;;;;;10.38;100.00;96498.38;5071478;27;104403;-60
2022/10/26 02:47:31;;;;;;;4.37;3.97;;;;;;;10.40;100.00;96488.28;5071920;27;101850;-60
2022/10/26 02:49:59;;;;;;;4.43;4.03;;;;;;;10.43;100.00;96503.75;5072400;27;105000;-60
2022/10/26 02:52:47;;;;;;;5.20;4.37;;;;;;;10.38;100.00;96511.66;5071768;27;105319;-60
2022/10/26 02:55:20;;;;;;;3.90;3.60;;;;;;;10.41;100.00;96500.56;4996581;28;102213;-60
2022/10/26 02:57:52;;;;;;;4.43;4.00;;;;;;;10.36;100.00;96514.56;5009695;28;102092;-60
2022/10/26 03:00:20;;;;;;;4.70;3.70;;;;;;;10.35;100.00;96522.81;4993636;28;102014;-60
2022/10/26 03:02:56;;;;;;;4.67;4.20;;;;;;;10.39;100.00;96529.22;4993670;28;103783;-60
2022/10/26 03:05:26;;;;;;;4.03;3.60;;;;;;;10.38;100.00;96532.94;5009745;28;102572;-60
2022/10/26 03:07:54;;;;;;;4.40;3.60;;;;;;;10.41;100.00;96551.06;5010530;28;101923;-60
2022/10/26 03:10:21;;;;;;;3.97;3.63;;;;;;;10.49;100.00;96563.91;4993506;28;105812;-60
2022/10/26 03:12:49;;;;;;;3.57;3.27;;;;;;;10.47;100.00;96563.38;4992769;28;104222;-60
2022/10/26 03:15:16;;;;;;;4.33;3.60;;;;;;;10.51;100.00;96548.50;4996897;28;101969;-60
2022/10/26 03:17:43;;;;;;;3.50;3.20;;;;;;;10.54;100.00;96558.66;4992587;28;104057;-60
2022/10/26 03:20:13;;;;;;;3.23;2.93;;;;;;;10.81;100.00;96556.91;4993226;28;102120;-60
2022/10/26 03:22:40;;;;;;;3.80;2.80;;;;;;;10.88;100.00;96549.53;4992304;28;103981;-60
2022/10/26 03:25:08;;;;;;;4.17;3.30;;;;;;;10.94;100.00;96549.34;4992471;28;104272;-60
2022/10/26 03:27:36;;;;;;;3.87;3.57;;;;;;;10.97;100.00;96553.38;4993476;28;102228;-60
2022/10/26 03:30:04;;;;;;;4.93;2.83;;;;;;;11.00;100.00;96545.69;4993120;28;106002;-60
2022/10/26 03:32:31;;;;;;;3.60;2.20;;;;;;;11.04;100.00;96556.63;5030993;27;105670;-60
2022/10/26 03:34:59;;;;;;;2.73;2.40;;;;;;;11.13;100.00;96547.97;5071486;27;101895;-60
2022/10/26 03:37:27;;;;;;;2.60;2.40;;;;;;;11.19;100.00;96524.88;5074343;27;103606;-60
2022/10/26 03:39:54;;;;;;;3.33;2.47;;;;;;;11.22;100.00;96497.75;5071645;27;101967;-60
2022/10/26 03:42:23;;;;;;;3.10;2.37;;;;;;;11.22;100.00;96493.22;5071618;27;105245;-60
2022/10/26 03:44:50;;;;;;;4.20;2.47;;;;;;;11.20;100.00;96499.84;5071019;27;105118;-60
2022/10/26 03:47:17;;;;;;;2.60;2.40;;;;;;;11.18;100.00;96496.66;5072199;27;101863;-60
2022/10/26 03:49:44;;;;;;;3.93;3.00;;;;;;;11.17;100.00;96482.53;5071354;27;104991;-60
2022/10/26 03:52:12;;;;;;;4.73;2.70;;;;;;;11.17;100.00;96487.06;5070623;27;104166;-60
2022/10/26 03:54:41;;;;;;;5.43;2.63;;;;;;;11.15;100.00;96492.63;5071395;27;102074;-60
2022/10/26 03:57:08;;;;;;;4.27;2.87;;;;;;;11.17;100.00;96489.72;5070998;27;104998;-60
2022/10/26 03:59:36;;;;;;;6.47;4.03;;;;;;;11.14;100.00;96482.25;5075494;27;102581;-60
2022/10/26 04:02:10;;;;;;;3.20;2.90;;;;;;;11.08;100.00;96486.72;5070641;27;105029;-60
2022/10/26 04:04:38;;;;;;;2.90;2.53;;;;;;;11.02;100.00;96487.69;5070356;27;105472;-61
2022/10/26 04:07:05;;;;;;;3.70;2.53;;;;;;;10.89;100.00;96492.59;5065325;27;102010;-61
2022/10/26 04:09:32;;;;;;;4.10;2.70;;;;;;;10.89;100.00;96497.91;5071390;27;105362;-61
2022/10/26 04:12:17;;;;;;;3.53;3.27;;;;;;;10.96;100.00;96491.34;5070703;27;105128;-61
2022/10/26 04:14:45;;;;;;;4.07;3.20;;;;;;;10.98;100.00;96486.59;5071337;27;101837;-61
2022/10/26 04:17:12;;;;;;;4.87;3.23;;;;;;;10.99;100.00;96482.06;5071660;27;105002;-61
2022/10/26 04:19:39;;;;;;;5.03;3.80;;;;;;;10.98;100.00;96497.25;5070532;27;105062;-61
2022/10/26 04:22:40;;;;;;;7.90;6.60;;;;;;;10.92;100.00;96487.59;5074708;27;101928;-61
2022/10/26 04:25:12;;;;;;;7.20;6.50;;;;;;;10.94;100.00;96480.16;5059930;27;105870;-61
2022/10/26 04:27:40;;;;;;;7.07;5.17;;;;;;;10.95;100.00;96489.75;5070796;27;101890;-61
2022/10/26 04:30:09;;;;;;;4.80;4.10;;;;;;;10.96;100.00;96485.25;5070739;27;105229;-61
2022/10/26 04:32:36;;;;;;;3.90;3.57;;;;;;;10.94;100.00;96476.69;5070149;27;104032;-61
2022/10/26 04:35:05;;;;;;;6.33;3.77;;;;;;;10.93;100.00;96483.06;5070607;27;101776;-61
2022/10/26 04:37:32;;;;;;;3.60;3.30;;;;;;;10.83;100.00;96482.97;5070695;27;103720;-61
2022/10/26 04:39:59;;;;;;;4.27;3.07;;;;;;;10.84;100.00;96482.72;5069752;27;105882;-61
2022/10/26 04:42:26;;;;;;;3.60;3.30;;;;;;;10.83;100.00;96481.13;5071990;27;101897;-61
2022/10/26 04:44:54;;;;;;;4.33;3.60;;;;;;;10.86;100.00;96471.84;5073092;27;105216;-61
2022/10/26 04:47:21;;;;;;;4.30;3.87;;;;;;;10.80;100.00;96480.81;5069336;27;101971;-61
2022/10/26 04:49:48;;;;;;;3.67;3.17;;;;;;;10.74;100.00;96473.84;5070372;27;103660;-61
2022/10/26 04:52:16;;;;;;;3.53;3.10;;;;;;;10.74;100.00;96479.16;5069864;27;105051;-61
2022/10/26 04:54:43;;;;;;;3.40;3.00;;;;;;;10.73;100.00;96483.66;5070189;27;101934;-61
2022/10/26 04:57:10;;;;;;;3.07;2.87;;;;;;;10.70;100.00;96492.16;5070152;27;103641;-61
2022/10/26 04:59:37;;;;;;;3.17;2.80;;;;;;;10.64;100.00;96500.31;5069563;27;105529;-61
2022/10/26 05:02:05;;;;;;;3.50;3.20;;;;;;;10.65;100.00;96491.28;5070240;27;101800;-61
2022/10/26 05:04:33;;;;;;;5.87;3.77;;;;;;;10.68;100.00;96496.09;5070071;27;105044;-61
2022/10/26 05:06:59;;;;;;;11.60;7.37;;;;;;;10.69;100.00;96497.72;5072670;27;105400;-61
2022/10/26 05:09:27;;;;;;;9.13;6.87;;;;;;;10.74;100.00;96500.44;5070108;27;104906;-61
2022/10/26 05:11:54;;;;;;;9.93;7.90;;;;;;;10.73;100.00;96498.78;5069213;27;105879;-61
2022/10/26 05:14:21;;;;;;;11.27;8.80;;;;;;;10.75;100.00;96507.34;5070151;27;102076;-61
2022/10/26 05:16:50;;;;;;;6.80;6.03;;;;;;;10.73;100.00;96506.78;5070092;27;105862;-61
2022/10/26 05:19:19;;;;;;;5.67;5.03;;;;;;;10.77;100.00;96510.56;5069198;27;105486;-61
2022/10/26 05:21:46;;;;;;;5.07;4.57;;;;;;;10.82;100.00;96521.25;5069708;27;101981;-61
2022/10/26 05:24:14;;;;;;;6.20;4.10;;;;;;;10.84;100.00;96533.25;5069868;27;105544;-61
2022/10/26 05:26:43;;;;;;;14.13;10.20;;;;;;;10.85;100.00;96540.19;5072700;27;103837;-61
2022/10/26 05:29:10;;;;;;;4.10;3.70;;;;;;;10.84;100.00;96551.88;5068807;27;105510;-61
2022/10/26 05:31:37;;;;;;;6.77;5.30;;;;;;;10.90;100.00;96566.84;5068895;27;102946;-61
2022/10/26 05:34:04;;;;;;;4.20;3.07;;;;;;;10.85;100.00;96572.09;5069750;27;101900;-61
2022/10/26 05:36:33;;;;;;;3.63;3.20;;;;;;;10.80;100.00;96584.56;5069889;27;104043;-61
2022/10/26 05:39:00;;;;;;;4.60;3.10;;;;;;;10.87;100.00;96598.47;5069185;27;105037;-61
2022/10/26 05:41:27;;;;;;;6.50;2.60;;;;;;;10.89;100.00;96599.03;5069503;27;101880;-61
2022/10/26 05:43:54;;;;;;;5.00;3.10;;;;;;;10.91;100.00;96607.56;5069621;27;105066;-61
2022/10/26 05:46:21;;;;;;;4.83;2.80;;;;;;;10.90;100.00;96620.06;5067849;27;105517;-61
2022/10/26 05:48:49;;;;;;;4.90;3.33;;;;;;;10.92;100.00;96619.81;5072435;27;102099;-61
2022/10/26 05:51:16;;;;;;;5.33;3.47;;;;;;;10.92;100.00;96644.59;5068539;27;105574;-61
2022/10/26 05:53:45;;;;;;;5.37;3.10;;;;;;;10.96;100.00;96653.66;5069550;27;101807;-61
2022/10/26 05:56:19;;;;;;;3.73;3.37;;;;;;;10.99;100.00;96663.00;5069124;27;105193;-61
2022/10/26 05:58:47;;;;;;;4.73;3.10;;;;;;;11.06;100.00;96669.78;5068874;27;103901;-61
2022/10/26 06:01:28;;;;;;;3.57;2.80;;;;;;;10.99;100.00;96647.88;5069459;27;101876;-61
2022/10/26 06:04:09;;;;;;;3.13;2.93;;;;;;;11.02;100.00;96654.56;5068958;27;106543;-61
2022/10/26 06:06:40;;;;;;;3.07;2.80;;;;;;;11.04;100.00;96665.75;5068716;27;105681;-61
2022/10/26 06:09:11;;;;;;;4.47;2.57;;;;;;;11.30;100.00;96670.34;5069250;27;101893;-61
2022/10/26 06:11:38;;;;;;;4.50;4.20;;;;;;;11.22;100.00;96681.41;5072150;27;103903;-61
2022/10/26 06:14:06;;;;;;;2.73;2.20;;;;;;;11.62;100.00;96679.28;5069304;27;102135;-61
2022/10/26 06:16:43;;;;;;;2.83;2.60;;;;;;;11.63;100.00;96680.88;5069054;27;105042;-61
2022/10/26 06:19:24;;;;;;;2.47;2.27;;;;;;;11.71;100.00;96699.09;5068383;27;105154;-61
2022/10/26 06:22:03;;;;;;;2.60;2.13;;;;;;;11.92;100.00;96698.25;5069107;27;101776;-61
2022/10/26 06:24:41;;;;;;;2.60;2.10;;;;;;;12.07;100.00;96709.06;5069101;27;103772;-61
2022/10/26 06:27:13;;;;;;;2.10;1.93;;;;;;;12.12;100.00;96696.63;5068420;27;105214;-61
2022/10/26 06:29:48;;;;;;;4.17;3.87;;;;;;;12.12;100.00;96701.94;5070250;27;101919;-61
2022/10/26 06:32:16;;;;;;;2.47;1.90;;;;;;;12.25;100.00;96714.84;5068552;27;105049;-61
2022/10/26 06:34:46;;;;;;;5.30;3.43;;;;;;;12.30;100.00;96693.56;5073080;27;102909;-61
2022/10/26 06:37:14;;;;;;;5.97;4.93;;;;;;;12.24;100.00;96693.78;5068445;27;105195;-61
2022/10/26 06:39:46;;;;;;;3.33;2.53;;;;;;;12.19;100.00;96699.06;5067777;27;105978;-61
2022/10/26 06:42:13;;;;;;;3.67;2.70;;;;;;;12.19;100.00;96710.53;5068063;27;101820;-61
2022/10/26 06:44:41;;;;;;;2.30;2.10;;;;;;;12.19;100.00;96723.88;5068415;27;104941;-61
2022/10/26 06:47:14;;;;;;;2.80;1.97;;;;;;;12.21;100.00;96732.41;5067393;27;105431;-61
2022/10/26 06:50:00;;;;;;;2.83;2.63;;;;;;;12.26;100.00;96737.00;5068368;27;101904;-61
2022/10/26 06:52:34;;;;;;;1.67;1.57;;;;;;;12.27;100.00;96735.94;5069532;27;102589;-61
2022/10/26 06:55:04;;;;;;;2.50;1.80;;;;;;;12.28;100.00;96737.56;5067778;27;106081;-61
2022/10/26 06:57:35;;;;;;;2.53;2.33;;;;;;;12.27;100.00;96746.63;5072670;27;101859;-61
2022/10/26 07:00:05;;;;;;;2.90;2.60;;;;;;;12.24;100.00;96753.25;5071421;27;105179;-61
2022/10/26 07:02:32;;;;;;;2.80;2.60;;;;;;;12.12;100.00;96755.25;5073361;27;101889;-61
2022/10/26 07:04:59;;;;;;;4.23;3.03;;;;;;;12.14;100.00;96749.66;5073408;27;102921;-61
2022/10/26 07:07:29;;;;;;;3.53;2.53;;;;;;;12.19;100.00;96758.53;5072854;27;102570;-61
2022/10/26 07:09:56;;;;;;;2.73;2.53;;;;;;;12.16;100.00;96756.34;5073396;27;101898;-61
2022/10/26 07:12:24;;;;;;;4.03;2.87;;;;;;;12.20;100.00;96748.66;5073503;27;102882;-61
2022/10/26 07:14:51;;;;;;;2.70;2.50;;;;;;;12.25;100.00;96754.84;5071038;27;104056;-61
2022/10/26 07:17:18;;;;;;;6.43;3.20;;;;;;;12.27;100.00;96747.41;5073430;27;101851;-61
2022/10/26 07:19:45;;;;;;;3.83;3.33;;;;;;;12.27;100.00;96738.63;5074723;27;105390;-61
2022/10/26 07:22:13;;;;;;;4.80;3.40;;;;;;;12.30;100.00;96732.75;5071564;27;101879;-61
2022/10/26 07:24:40;;;;;;;6.33;5.70;;;;;;;12.45;100.00;96728.38;5071814;27;105434;-61
2022/10/26 07:27:07;;;;;;;4.37;3.93;;;;;;;12.51;100.00;96729.22;5071125;27;104211;-61
2022/10/26 07:29:36;;;;;;;6.53;4.63;;;;;;;12.59;100.00;96734.09;5071440;27;102226;-61
2022/10/26 07:32:03;;;;;;;6.50;4.57;;;;;;;12.66;100.00;96735.50;5071775;27;105073;-61
2022/10/26 07:34:30;;;;;;;5.70;4.60;;;;;;;12.70;100.00;96735.81;5070962;27;105455;-61
2022/10/26 07:36:59;;;;;;;6.20;4.80;;;;;;;12.70;100.00;96727.78;5071640;27;101924;-61
2022/10/26 07:39:26;;;;;;;5.73;5.13;;;;;;;12.81;100.00;96732.94;5074204;27;104874;-61
2022/10/26 07:41:53;;;;;;;5.20;4.50;;;;;;;12.89;100.00;96731.66;5071492;27;102051;-61
2022/10/26 07:44:20;;;;;;;4.87;3.70;;;;;;;13.05;100.00;96730.75;5071509;27;103642;-61
2022/10/26 07:46:49;;;;;;;5.43;3.90;;;;;;;13.12;100.00;96723.28;5070541;27;103841;-61
2022/10/26 07:49:17;;;;;;;3.90;3.20;;;;;;;13.03;100.00;96722.19;5071042;27;101903;-61
2022/10/26 07:51:44;;;;;;;3.67;2.90;;;;;;;13.07;100.00;96717.91;5071297;27;105004;-61
2022/10/26 07:54:11;;;;;;;4.50;3.20;;;;;;;13.22;100.00;96723.38;5072270;27;102631;-61
2022/10/26 07:56:38;;;;;;;4.90;2.80;;;;;;;13.22;100.00;96728.72;5071427;27;102070;-61
2022/10/26 07:59:05;;;;;;;3.77;2.97;;;;;;;13.07;100.00;96732.09;5071308;27;105048;-61
2022/10/26 08:01:32;;;;;;;5.00;2.60;;;;;;;13.07;100.00;96726.75;5073984;27;104137;-61
2022/10/26 08:04:01;;;;;;;4.17;2.63;;;;;;;12.98;100.00;96733.63;5071380;27;104866;-61
2022/10/26 08:06:28;;;;;;;2.40;2.20;;;;;;;13.14;100.00;96723.88;5070557;27;104005;-61
2022/10/26 08:08:55;;;;;;;2.60;2.40;;;;;;;13.29;100.00;96721.25;5070802;27;101925;-61
2022/10/26 08:11:22;;;;;;;3.27;2.50;;;;;;;13.59;100.00;96718.75;5071066;27;105565;-61
2022/10/26 08:13:52;;;;;;;2.60;2.40;;;;;;;13.73;100.00;96726.03;5070150;27;105641;-61
2022/10/26 08:16:19;;;;;;;4.53;2.40;;;;;;;13.68;100.00;96719.88;5072308;27;101945;-61
2022/10/26 08:18:48;;;;;;;4.47;2.87;;;;;;;13.76;100.00;96706.81;5070921;27;104768;-61
2022/10/26 08:21:18;;;;;;;2.90;2.70;;;;;;;13.97;100.00;96711.16;5070255;27;104176;-61
2022/10/26 08:23:45;;;;;;;2.87;2.57;;;;;;;14.13;100.00;96698.59;5074370;27;101942;-61
2022/10/26 08:26:13;;;;;;;3.00;2.50;;;;;;;14.29;100.00;96689.56;5069931;27;103976;-62
2022/10/26 08:28:41;;;;;;;3.13;2.57;;;;;;;14.47;100.00;96681.81;5070735;27;101819;-62
2022/10/26 08:31:08;;;;;;;5.03;2.47;;;;;;;14.63;100.00;96680.75;5072300;27;102140;-62
2022/10/26 08:33:35;;;;;;;2.77;2.43;;;;;;;14.75;100.00;96664.41;5069887;27;103007;-62
2022/10/26 08:36:05;;;;;;;3.17;2.70;;;;;;;14.90;100.00;96675.09;5070157;27;102004;-62
2022/10/26 08:38:34;;;;;;;3.00;2.67;;;;;;;14.93;100.00;96669.22;5051929;27;102853;-62
2022/10/26 08:41:09;;;;;;;21.50;14.03;;;;;;;14.83;100.00;96678.03;5065936;27;106223;-63
2022/10/26 08:43:41;;;;;;;10.00;6.73;;;;;;;14.92;100.00;96672.94;5069432;27;102037;-61
2022/10/26 08:46:14;;;;;;;8.63;4.87;;;;;;;15.04;100.00;96673.47;5073314;27;105070;-62
2022/10/26 08:48:45;;;;;;;3.33;2.90;;;;;;;15.09;100.00;96676.16;5070189;27;102322;-62
2022/10/26 08:55:25;;;;;;;5.70;3.40;;;;;;;15.21;100.00;96673.97;5066131;27;102767;-62
2022/10/26 08:57:53;;;;;;;2.80;2.53;;;;;;;15.23;100.00;96666.44;5071905;27;101745;-62
2022/10/26 09:00:22;;;;;;;3.00;2.70;;;;;;;15.29;100.00;96668.03;5071778;27;102328;-62
2022/10/26 09:02:51;;;;;;;3.40;3.07;;;;;;;15.33;100.00;96666.47;5071176;27;102576;-62
2022/10/26 09:05:22;;;;;;;3.37;2.90;;;;;;;15.32;100.00;96667.50;5070261;27;102266;-62
2022/10/26 09:07:56;;;;;;;3.10;2.60;;;;;;;15.27;100.00;96660.25;5071923;27;102489;-62
2022/10/26 09:10:38;;;;;;;3.47;2.33;;;;;;;15.22;100.00;96678.25;5074602;27;102796;-62
2022/10/26 09:13:37;;;;;;;3.17;2.77;;;;;;;14.97;100.00;96683.66;5070921;27;102882;-62
2022/10/26 09:16:13;;;;;;;7.10;3.07;;;;;;;15.05;100.00;96691.16;5067050;27;102662;-62
2022/10/26 09:18:50;;;;;;;6.43;2.13;;;;;;;15.15;100.00;96677.75;5069674;27;101881;-62
2022/10/26 09:21:31;;;;;;;1.80;1.70;;;;;;;15.33;100.00;96677.19;5070081;27;102671;-62
2022/10/26 09:27:50;;;;;;;2.63;1.63;;;;;;;15.68;100.00;96668.97;5068192;27;101837;-62
2022/10/26 09:30:21;;;;;;;1.43;1.10;;;;;;;15.77;100.00;96668.16;5071367;27;101672;-62
2022/10/26 09:33:17;;;;;;;1.33;1.20;;;;;;;15.94;100.00;96667.78;5069188;27;104102;-62
2022/10/26 09:35:50;;;;;;;2.83;1.97;;;;;;;16.19;100.00;96667.63;5073310;27;101939;-61
2022/10/26 09:38:25;;;;;;;1.60;1.40;;;;;;;16.48;100.00;96663.97;5069350;27;103835;-62
2022/10/26 09:40:58;;;;;;;1.83;1.40;;;;;;;16.74;100.00;96667.25;5069813;27;101748;-61
2022/10/26 09:43:30;;;;;;;3.37;2.00;;;;;;;17.12;100.00;96671.72;5069801;27;104399;-61
2022/10/26 09:45:57;;;;;;;2.70;1.90;;;;;;;17.49;100.00;96664.59;5069048;27;105309;-62
2022/10/26 09:48:31;;;;;;;3.90;2.10;;;;;;;17.56;100.00;96670.41;5057637;27;101958;-63
2022/10/26 09:51:11;;;;;;;1.73;1.63;;;;;;;17.64;100.00;96685.13;5067834;27;104977;-63
2022/10/26 09:53:39;;;;;;;2.53;1.80;;;;;;;17.85;100.00;96681.09;5068187;27;103782;-63
2022/10/26 09:56:23;;;;;;;1.80;1.70;;;;;;;18.07;100.00;96676.78;5072258;27;102411;-63
2022/10/26 09:58:58;;;;;;;4.03;1.57;;;;;;;18.07;100.00;96670.56;5068433;27;105248;-63
2022/10/26 10:01:31;;;;;;;3.37;1.50;;;;;;;18.18;100.00;96669.34;5068594;27;102054;-63
2022/10/26 10:04:21;;;;;;;1.67;1.30;;;;;;;18.42;100.00;96673.59;5068696;27;102458;-63
2022/10/26 10:06:50;;;;;;;0.90;0.90;;;;;;;18.51;100.00;96668.34;5069414;27;104129;-63
2022/10/26 10:09:19;;;;;;;4.03;1.20;;;;;;;18.55;100.00;96672.84;5068608;27;101975;-63
2022/10/26 10:11:53;;;;;;;1.43;1.10;;;;;;;18.25;100.00;96673.28;5069377;27;103043;-62
2022/10/26 10:14:24;;;;;;;1.83;0.97;;;;;;;18.13;100.00;96674.78;5069537;27;103081;-63
2022/10/26 10:16:55;;;;;;;1.47;0.90;;;;;;;18.07;100.00;96675.97;5068533;27;101871;-63
2022/10/26 10:19:26;;;;;;;2.33;1.10;;;;;;;18.10;100.00;96686.16;5071503;27;103845;-63
2022/10/26 10:21:57;;;;;;;1.33;0.80;;;;;;;18.10;100.00;96688.84;5068453;27;101820;-63
2022/10/26 10:24:28;;;;;;;1.57;1.00;;;;;;;18.26;100.00;96684.84;5068402;27;104889;-63
2022/10/26 10:27:01;;;;;;;2.40;1.10;;;;;;;18.50;100.00;96688.28;5067606;27;105572;-63
2022/10/26 10:29:32;;;;;;;1.03;0.97;;;;;;;18.57;100.00;96694.09;5067542;27;101999;-63
2022/10/26 10:32:01;;;;;;;3.03;1.00;;;;;;;18.83;100.00;96692.59;5070477;27;104112;-63
2022/10/26 10:34:31;;;;;;;1.87;1.10;;;;;;;18.77;100.00;96691.91;5071746;27;104201;-63
2022/10/26 10:36:59;;;;;;;3.27;1.00;;;;;;;18.80;100.00;96693.97;5072445;27;102003;-63
2022/10/26 10:39:35;;;;;;;2.00;1.10;;;;;;;18.81;100.00;96698.28;5073486;27;102853;-63
2022/10/26 10:42:04;;;;;;;2.57;1.10;;;;;;;18.84;100.00;96703.09;5074977;27;105726;-63
2022/10/26 10:44:34;;;;;;;2.70;1.23;;;;;;;18.93;100.00;96700.53;5072313;27;103557;-63
2022/10/26 10:47:02;;;;;;;1.63;0.90;;;;;;;18.96;100.00;96713.41;5071378;27;106395;-63
2022/10/26 10:49:31;;;;;;;1.37;0.90;;;;;;;18.66;100.00;96716.59;5072079;27;101749;-63
2022/10/26 10:51:59;;;;;;;2.33;1.20;;;;;;;18.52;100.00;96726.53;5071590;27;105448;-63
2022/10/26 10:54:30;;;;;;;2.77;1.30;;;;;;;18.29;100.00;96733.53;5070853;27;105044;-63
2022/10/26 10:57:07;;;;;;;2.50;1.40;;;;;;;18.49;100.00;96735.97;5072571;27;101847;-63
2022/10/26 10:59:59;;;;;;;5.10;1.47;;;;;;;18.66;100.00;96743.53;5072209;27;103734;-63
2022/10/26 11:03:02;;;;;;;3.87;1.23;;;;;;;18.57;100.00;96739.88;5071299;27;105581;-63
2022/10/26 11:05:53;;;;;;;3.60;1.40;;;;;;;18.66;100.00;96736.25;5075315;27;101889;-63
2022/10/26 11:08:27;;;;;;;2.70;1.40;;;;;;;19.30;100.00;96730.88;5071055;27;105300;-63
2022/10/26 11:11:00;;;;;;;2.00;1.10;;;;;;;19.58;100.00;96737.94;5072881;27;101810;-63
2022/10/26 11:13:34;;;;;;;3.07;1.43;;;;;;;19.90;100.00;96742.44;5071769;27;105460;-63
2022/10/26 11:16:06;;;;;;;1.30;1.10;;;;;;;19.99;100.00;96741.44;5071262;27;105433;-63
2022/10/26 11:18:40;;;;;;;2.80;1.00;;;;;;;20.39;100.00;96737.91;5071584;27;101926;-63
2022/10/26 11:21:19;;;;;;;1.33;0.87;;;;;;;20.23;100.00;96733.16;5072765;27;102535;-63
2022/10/26 11:23:50;;;;;;;1.90;1.07;;;;;;;19.97;100.00;96737.44;5070802;27;105431;-63
2022/10/26 11:26:25;;;;;;;1.37;0.70;;;;;;;20.22;100.00;96745.06;5071517;27;101846;-63
2022/10/26 11:28:59;;;;;;;1.40;1.17;;;;;;;20.47;100.00;96744.50;5074201;27;105075;-63
2022/10/26 11:31:35;;;;;;;3.77;1.20;;;;;;;20.84;100.00;96746.88;5071231;27;101910;-63
2022/10/26 11:34:16;;;;;;;2.27;1.00;;;;;;;20.86;100.00;96744.66;5071315;27;104876;-63
2022/10/26 11:36:47;;;;;;;1.63;0.90;;;;;;;21.05;100.00;96745.31;5070319;27;105821;-63
2022/10/26 11:39:22;;;;;;;2.40;1.10;;;;;;;20.96;100.00;96744.44;5071354;27;102585;-63
2022/10/26 11:41:56;;;;;;;1.97;1.10;;;;;;;20.81;100.00;96748.28;5070541;27;105001;-63
2022/10/26 11:44:30;;;;;;;2.57;1.10;;;;;;;20.63;100.00;96751.16;5070024;27;102641;-63